Time;durP1;ratioP1;P1;durP2;ratioP2;P2;SDS_P1;SDS_P2;PMS_P1;PMS_P2;Temp;Humidity;BMP_temperature;BMP_pressure;BME280_temperature;BME280_humidity;BME280_pressure;Samples;Min_cycle;Max_cycle;Signal;HPM_P1;HPM_P2
2023/10/25 00:00:46;;;;;;;4.88;1.25;;;14.00;99.90;;;;;;4267750;27;20047;-56
2023/10/25 00:02:49;;;;;;;3.47;1.42;;;14.00;99.90;;;;;;4267712;27;20049;-56
2023/10/25 00:04:53;;;;;;;2.25;1.30;;;14.00;99.90;;;;;;4267491;27;20043;-57
2023/10/25 00:06:56;;;;;;;5.28;1.73;;;14.00;99.90;;;;;;4267300;27;20043;-56
2023/10/25 00:08:58;;;;;;;3.28;1.33;;;14.00;99.90;;;;;;4267680;27;20147;-57
2023/10/25 00:11:03;;;;;;;2.83;1.33;;;14.00;99.90;;;;;;4267792;27;20433;-56
2023/10/25 00:13:05;;;;;;;3.00;1.48;;;14.00;99.90;;;;;;4267472;27;20043;-56
2023/10/25 00:15:08;;;;;;;4.57;1.75;;;13.90;99.90;;;;;;4267388;27;20047;-56
2023/10/25 00:17:11;;;;;;;5.63;1.52;;;13.90;99.90;;;;;;4267384;27;20042;-58
2023/10/25 00:19:14;;;;;;;3.25;1.38;;;14.00;99.90;;;;;;4267229;27;20047;-56
2023/10/25 00:21:17;;;;;;;5.88;1.10;;;13.90;99.90;;;;;;4267056;27;20116;-56
2023/10/25 00:23:21;;;;;;;7.93;1.45;;;13.80;99.90;;;;;;4248921;27;20082;-55
2023/10/25 00:25:23;;;;;;;5.10;1.48;;;13.80;99.90;;;;;;4267191;27;20038;-58
2023/10/25 00:27:25;;;;;;;5.78;1.40;;;13.70;99.90;;;;;;4267302;27;20096;-57
2023/10/25 00:29:28;;;;;;;4.38;1.40;;;13.70;99.90;;;;;;4267400;27;20043;-56
2023/10/25 00:31:30;;;;;;;5.45;1.65;;;13.60;99.90;;;;;;4267548;27;20070;-56
2023/10/25 00:33:32;;;;;;;2.55;0.98;;;13.70;99.90;;;;;;4267394;27;20046;-56
2023/10/25 00:35:36;;;;;;;3.17;1.30;;;13.70;99.90;;;;;;4267226;27;20047;-56
2023/10/25 00:37:39;;;;;;;2.97;1.42;;;13.70;99.90;;;;;;4267816;27;20652;-56
2023/10/25 00:39:41;;;;;;;9.65;1.92;;;13.60;99.90;;;;;;4268703;27;20064;-58
2023/10/25 00:41:44;;;;;;;2.85;1.40;;;13.60;99.90;;;;;;4268715;27;20046;-56
2023/10/25 00:43:46;;;;;;;3.72;1.48;;;13.60;99.90;;;;;;4268084;27;20047;-56
2023/10/25 00:46:00;;;;;;;2.47;1.40;;;13.50;99.90;;;;;;4267697;27;20043;-56
2023/10/25 00:48:03;;;;;;;3.63;1.73;;;13.60;99.90;;;;;;4267599;27;20043;-58
2023/10/25 00:50:07;;;;;;;5.38;1.92;;;13.50;99.90;;;;;;4267324;27;20039;-56
2023/10/25 00:52:11;;;;;;;4.63;1.88;;;13.50;99.90;;;;;;4268133;27;20480;-57
2023/10/25 00:54:15;;;;;;;9.15;2.00;;;13.40;99.90;;;;;;4267837;27;20088;-57
2023/10/25 00:56:19;;;;;;;5.45;1.85;;;13.40;99.90;;;;;;4267337;27;20053;-59
2023/10/25 00:58:23;;;;;;;5.85;1.60;;;13.30;99.90;;;;;;4266857;27;20039;-59
2023/10/25 01:00:25;;;;;;;6.33;2.00;;;13.30;99.90;;;;;;4266853;27;20087;-58
2023/10/25 01:02:28;;;;;;;4.93;1.73;;;13.30;99.90;;;;;;4266213;27;20463;-57
2023/10/25 01:04:30;;;;;;;6.72;1.60;;;13.20;99.90;;;;;;4266295;27;20046;-56
2023/10/25 01:06:35;;;;;;;6.75;1.75;;;13.20;99.90;;;;;;4266814;27;20142;-56
2023/10/25 01:08:40;;;;;;;4.85;1.50;;;13.10;99.90;;;;;;4266576;27;20043;-57
2023/10/25 01:10:42;;;;;;;8.00;1.60;;;13.10;99.90;;;;;;4266414;27;20038;-56
2023/10/25 01:12:44;;;;;;;7.05;1.73;;;13.10;99.90;;;;;;4266784;27;20092;-56
2023/10/25 01:14:49;;;;;;;6.45;1.52;;;13.10;99.90;;;;;;4266464;27;20047;-60
2023/10/25 01:16:51;;;;;;;2.10;1.08;;;13.10;99.90;;;;;;4247764;27;20043;-56
2023/10/25 01:18:54;;;;;;;5.47;1.08;;;13.00;99.90;;;;;;4266929;27;20437;-56
2023/10/25 01:20:56;;;;;;;4.95;1.30;;;13.00;99.90;;;;;;4267508;27;20117;-56
2023/10/25 01:23:00;;;;;;;5.35;1.38;;;13.00;99.90;;;;;;4267437;27;20133;-56
2023/10/25 01:25:02;;;;;;;4.10;1.80;;;12.90;99.90;;;;;;4266386;27;20051;-56
2023/10/25 01:27:04;;;;;;;3.90;1.50;;;12.80;99.90;;;;;;4266451;27;20047;-57
2023/10/25 01:29:06;;;;;;;2.97;1.15;;;12.90;99.90;;;;;;4265964;27;20082;-56
2023/10/25 01:31:08;;;;;;;3.22;1.20;;;12.90;99.90;;;;;;4266164;27;20043;-56
2023/10/25 01:33:11;;;;;;;6.07;1.55;;;12.90;99.90;;;;;;4265930;27;20049;-56
2023/10/25 01:35:13;;;;;;;4.82;1.65;;;12.80;99.90;;;;;;4265900;27;20047;-57
2023/10/25 01:37:15;;;;;;;3.45;1.45;;;12.80;99.90;;;;;;4266384;27;20396;-56
2023/10/25 01:39:19;;;;;;;3.28;1.20;;;12.80;99.90;;;;;;4266058;27;20062;-56
2023/10/25 01:41:21;;;;;;;3.10;1.10;;;12.80;99.90;;;;;;4265731;27;20517;-56
2023/10/25 01:43:24;;;;;;;3.22;1.00;;;12.80;99.90;;;;;;4265931;27;20095;-56
2023/10/25 01:45:30;;;;;;;3.15;1.17;;;12.90;99.90;;;;;;4266098;27;20498;-57
2023/10/25 01:47:32;;;;;;;2.65;1.00;;;12.70;99.90;;;;;;4265900;27;20039;-55
2023/10/25 01:49:34;;;;;;;5.22;1.20;;;12.70;99.90;;;;;;4265850;27;20381;-57
2023/10/25 01:51:36;;;;;;;4.07;1.35;;;12.70;99.90;;;;;;4247571;27;20102;-55
2023/10/25 01:53:38;;;;;;;2.00;1.13;;;12.70;99.90;;;;;;4247289;27;20043;-56
2023/10/25 01:55:42;;;;;;;2.17;1.25;;;12.70;99.90;;;;;;4265514;27;20146;-57
2023/10/25 01:57:45;;;;;;;2.17;1.00;;;12.70;99.90;;;;;;4265622;27;20205;-57
2023/10/25 01:59:47;;;;;;;3.10;1.10;;;12.70;99.90;;;;;;4265602;27;20046;-55
2023/10/25 02:01:49;;;;;;;4.20;1.48;;;12.70;99.90;;;;;;4265297;27;20129;-56
2023/10/25 02:03:51;;;;;;;2.35;0.95;;;12.60;99.90;;;;;;4265524;27;20039;-56
2023/10/25 02:05:53;;;;;;;2.90;1.00;;;12.60;99.90;;;;;;4265517;27;20050;-56
2023/10/25 02:07:55;;;;;;;3.30;1.20;;;12.60;99.90;;;;;;4265528;27;20049;-55
2023/10/25 02:09:57;;;;;;;4.55;1.30;;;12.70;99.90;;;;;;4265564;27;20043;-57
2023/10/25 02:12:01;;;;;;;1.95;0.95;;;12.60;99.90;;;;;;4265294;27;20084;-56
2023/10/25 02:14:03;;;;;;;3.38;1.20;;;12.60;99.90;;;;;;4265036;27;20459;-54
2023/10/25 02:16:13;;;;;;;4.53;1.33;;;12.60;99.90;;;;;;4265022;27;20043;-56
2023/10/25 02:18:16;;;;;;;2.75;1.20;;;12.60;99.90;;;;;;4265266;27;20057;-56
2023/10/25 02:20:18;;;;;;;2.78;1.17;;;12.50;99.90;;;;;;4265597;27;20077;-56
2023/10/25 02:22:20;;;;;;;4.55;1.17;;;12.50;99.90;;;;;;4265428;27;20043;-57
2023/10/25 02:24:22;;;;;;;5.88;1.30;;;12.50;99.90;;;;;;4246970;27;20075;-56
2023/10/25 02:26:24;;;;;;;3.13;1.10;;;12.60;99.90;;;;;;4265328;27;20050;-56
2023/10/25 02:28:28;;;;;;;2.72;1.17;;;12.60;99.90;;;;;;4265454;27;20070;-56
2023/10/25 02:30:30;;;;;;;2.55;1.30;;;12.60;99.90;;;;;;4265171;27;20050;-55
2023/10/25 02:32:32;;;;;;;3.63;1.33;;;12.70;99.90;;;;;;4246641;27;20083;-55
2023/10/25 02:34:35;;;;;;;2.00;1.30;;;12.70;99.90;;;;;;4265291;27;20660;-55
2023/10/25 02:36:37;;;;;;;5.05;1.48;;;12.70;99.90;;;;;;4265247;27;20073;-56
2023/10/25 02:38:39;;;;;;;5.25;1.27;;;12.60;99.90;;;;;;4265342;27;20080;-57
2023/10/25 02:40:41;;;;;;;2.47;1.30;;;12.70;99.90;;;;;;4265251;27;20077;-57
2023/10/25 02:42:46;;;;;;;2.55;1.10;;;12.70;99.90;;;;;;4266752;27;20058;-59
2023/10/25 02:44:50;;;;;;;3.15;1.17;;;12.70;99.90;;;;;;4267886;27;20038;-57
2023/10/25 02:46:55;;;;;;;6.10;1.90;;;12.80;99.90;;;;;;4267408;27;20042;-58
2023/10/25 02:48:57;;;;;;;4.95;1.60;;;12.80;99.90;;;;;;4265267;27;20043;-56
2023/10/25 02:51:00;;;;;;;6.65;1.50;;;12.80;99.90;;;;;;4265175;27;20050;-57
2023/10/25 02:53:02;;;;;;;2.78;1.50;;;12.80;99.90;;;;;;4264914;27;20087;-56
2023/10/25 02:55:05;;;;;;;4.53;1.50;;;12.70;99.90;;;;;;4265082;27;20043;-57
2023/10/25 02:57:07;;;;;;;4.30;1.30;;;12.70;99.90;;;;;;4264747;27;20097;-56
2023/10/25 02:59:10;;;;;;;2.80;1.60;;;12.80;99.90;;;;;;4265112;27;20548;-57
2023/10/25 03:01:21;;;;;;;2.50;1.20;;;12.80;99.90;;;;;;4264858;27;20046;-56
2023/10/25 03:03:23;;;;;;;3.28;1.33;;;12.80;99.90;;;;;;4264660;27;20047;-57
2023/10/25 03:05:26;;;;;;;4.68;1.85;;;12.90;99.90;;;;;;4264966;27;20133;-56
2023/10/25 03:07:28;;;;;;;2.63;1.40;;;12.90;99.90;;;;;;4264650;27;20096;-63
2023/10/25 03:09:30;;;;;;;2.92;1.40;;;12.90;99.90;;;;;;4268138;27;20043;-59
2023/10/25 03:11:32;;;;;;;4.47;1.52;;;12.80;99.90;;;;;;4267894;27;20076;-57
2023/10/25 03:13:34;;;;;;;4.03;1.50;;;12.90;99.90;;;;;;4267968;27;20118;-63
2023/10/25 03:15:37;;;;;;;3.80;1.52;;;12.90;99.90;;;;;;4247265;28;20050;-56
2023/10/25 03:17:40;;;;;;;6.90;1.92;;;12.90;99.90;;;;;;4271068;27;20042;-57
2023/10/25 03:19:42;;;;;;;3.80;1.27;;;12.90;99.90;;;;;;4282035;27;20049;-56
2023/10/25 03:21:45;;;;;;;2.88;1.50;;;12.90;99.90;;;;;;4282190;27;20042;-57
2023/10/25 03:23:48;;;;;;;3.40;1.27;;;12.90;99.90;;;;;;4282294;27;20034;-56
2023/10/25 03:25:50;;;;;;;8.05;2.05;;;13.00;99.90;;;;;;4281950;27;20046;-56
2023/10/25 03:27:52;;;;;;;5.57;1.50;;;13.00;99.90;;;;;;4282048;27;20069;-56
2023/10/25 03:29:54;;;;;;;6.10;1.88;;;13.00;99.90;;;;;;4281442;27;20042;-56
2023/10/25 03:31:58;;;;;;;6.70;1.77;;;13.00;99.90;;;;;;4281812;27;20050;-57
2023/10/25 03:34:01;;;;;;;3.23;1.40;;;13.00;99.90;;;;;;4282221;27;20042;-56
2023/10/25 03:36:04;;;;;;;5.57;1.60;;;13.00;99.90;;;;;;4282059;27;20050;-56
2023/10/25 03:38:07;;;;;;;2.60;1.20;;;12.90;99.90;;;;;;4281894;27;20088;-57
2023/10/25 03:40:10;;;;;;;4.57;1.38;;;13.00;99.90;;;;;;4282116;27;20077;-56
2023/10/25 03:42:13;;;;;;;3.60;1.58;;;13.00;99.90;;;;;;4263517;27;20067;-56
2023/10/25 03:44:15;;;;;;;4.20;1.40;;;13.00;99.90;;;;;;4281560;27;20046;-57
2023/10/25 03:46:17;;;;;;;3.22;1.70;;;13.00;99.90;;;;;;4282078;27;20050;-57
2023/10/25 03:48:20;;;;;;;6.90;2.08;;;13.00;99.90;;;;;;4282269;27;20440;-56
2023/10/25 03:50:25;;;;;;;7.35;1.75;;;13.00;99.90;;;;;;4282086;27;20047;-58
2023/10/25 03:52:27;;;;;;;;;;;13.00;99.90;;;;;;4282689;27;20049;-57
2023/10/25 03:54:30;;;;;;;4.38;1.77;;;13.00;99.90;;;;;;4283147;27;20005;-57
2023/10/25 03:56:32;;;;;;;5.70;1.42;;;13.00;99.90;;;;;;4283702;27;20042;-56
2023/10/25 03:58:34;;;;;;;7.53;1.55;;;13.00;99.90;;;;;;4283453;27;20047;-56
2023/10/25 04:00:36;;;;;;;5.65;1.40;;;13.00;99.90;;;;;;4283914;27;20043;-56
2023/10/25 04:02:38;;;;;;;5.70;1.50;;;13.10;99.90;;;;;;4283325;27;20042;-57
2023/10/25 04:04:40;;;;;;;5.10;1.55;;;13.10;99.90;;;;;;4282815;27;20038;-56
2023/10/25 04:06:43;;;;;;;6.15;1.70;;;13.10;99.90;;;;;;4282163;27;20090;-56
2023/10/25 04:08:45;;;;;;;3.42;1.30;;;13.10;99.90;;;;;;4281974;27;20119;-57
2023/10/25 04:10:51;;;;;;;4.00;1.20;;;13.20;99.90;;;;;;4281654;27;20067;-56
2023/10/25 04:12:53;;;;;;;6.68;1.40;;;13.20;99.90;;;;;;4281102;27;20049;-57
2023/10/25 04:14:56;;;;;;;6.00;1.60;;;13.20;99.90;;;;;;4281562;27;20052;-56
2023/10/25 04:16:59;;;;;;;7.55;1.85;;;13.20;99.90;;;;;;4281304;27;20125;-56
2023/10/25 04:19:01;;;;;;;5.28;1.73;;;13.20;99.90;;;;;;4281672;27;20462;-56
2023/10/25 04:21:08;;;;;;;3.83;1.42;;;13.20;99.90;;;;;;4284584;27;20069;-56
2023/10/25 04:23:12;;;;;;;2.03;1.10;;;13.20;99.90;;;;;;4284598;27;20276;-56
2023/10/25 04:25:15;;;;;;;5.57;1.10;;;13.20;99.90;;;;;;4284276;27;20049;-56
2023/10/25 04:27:17;;;;;;;4.13;1.20;;;13.30;99.90;;;;;;4284484;27;20041;-57
2023/10/25 04:29:19;;;;;;;5.13;1.30;;;13.30;99.90;;;;;;4284568;27;20538;-56
2023/10/25 04:31:21;;;;;;;3.70;1.38;;;13.40;99.90;;;;;;4284627;27;20372;-56
2023/10/25 04:33:24;;;;;;;6.20;1.25;;;13.30;99.90;;;;;;4284849;27;20038;-56
2023/10/25 04:35:25;;;;;;;4.03;1.50;;;13.30;99.90;;;;;;4286151;27;20121;-57
2023/10/25 04:37:27;;;;;;;3.53;1.48;;;13.30;99.90;;;;;;4284634;27;20042;-57
2023/10/25 04:39:31;;;;;;;3.50;1.15;;;13.30;99.90;;;;;;4284674;27;20038;-56
2023/10/25 04:41:33;;;;;;;4.75;1.25;;;13.40;99.90;;;;;;4283785;27;20046;-56
2023/10/25 04:43:35;;;;;;;4.60;1.50;;;13.40;99.90;;;;;;4265628;27;20121;-56
2023/10/25 04:45:37;;;;;;;3.75;0.98;;;13.40;99.90;;;;;;4284145;27;20533;-56
2023/10/25 04:47:40;;;;;;;4.13;1.30;;;13.30;99.90;;;;;;4284253;27;20046;-56
2023/10/25 04:49:42;;;;;;;2.22;0.93;;;13.40;99.90;;;;;;4284476;27;20063;-56
2023/10/25 04:51:45;;;;;;;4.55;1.17;;;13.40;99.90;;;;;;4284089;27;20046;-57
2023/10/25 04:53:47;;;;;;;2.55;1.10;;;13.40;99.90;;;;;;4283948;27;20046;-56
2023/10/25 04:55:50;;;;;;;3.80;1.50;;;13.40;99.90;;;;;;4283592;27;20046;-55
2023/10/25 04:57:53;;;;;;;2.17;1.10;;;13.40;99.90;;;;;;4283788;27;20072;-56
2023/10/25 04:59:55;;;;;;;3.08;1.02;;;13.40;99.90;;;;;;4284158;27;20042;-57
2023/10/25 05:01:57;;;;;;;2.55;1.00;;;13.50;99.90;;;;;;4284160;27;20057;-56
2023/10/25 05:03:59;;;;;;;2.28;0.80;;;13.40;99.90;;;;;;4283957;27;20049;-57
2023/10/25 05:06:04;;;;;;;3.13;1.00;;;13.50;99.90;;;;;;4283972;27;20138;-57
2023/10/25 05:08:08;;;;;;;3.47;1.30;;;13.50;99.90;;;;;;4283934;27;20472;-56
2023/10/25 05:10:12;;;;;;;2.80;1.10;;;13.50;99.90;;;;;;4283281;27;20049;-56
2023/10/25 05:12:24;;;;;;;3.33;1.17;;;13.50;99.90;;;;;;4283971;27;20125;-56
2023/10/25 05:14:27;;;;;;;2.72;1.50;;;13.50;99.90;;;;;;4283831;27;20091;-56
2023/10/25 05:16:29;;;;;;;2.80;1.45;;;13.50;99.90;;;;;;4265475;27;20043;-57
2023/10/25 05:18:32;;;;;;;2.17;1.23;;;13.50;99.90;;;;;;4283803;27;20495;-56
2023/10/25 05:20:35;;;;;;;5.07;1.30;;;13.60;99.90;;;;;;4284212;27;20048;-56
2023/10/25 05:22:39;;;;;;;1.67;1.10;;;13.50;99.90;;;;;;4283726;27;20038;-56
2023/10/25 05:24:41;;;;;;;2.58;1.20;;;13.60;99.90;;;;;;4283582;27;20047;-58
2023/10/25 05:26:44;;;;;;;3.22;1.23;;;13.60;99.90;;;;;;4283391;27;20435;-56
2023/10/25 05:28:48;;;;;;;5.15;1.50;;;13.60;99.90;;;;;;4283530;27;20054;-56
2023/10/25 05:30:54;;;;;;;3.47;1.50;;;13.60;99.90;;;;;;4283202;27;20054;-56
2023/10/25 05:33:01;;;;;;;3.83;1.42;;;13.60;99.90;;;;;;4283524;27;20102;-56
2023/10/25 05:35:05;;;;;;;4.97;1.55;;;13.60;99.90;;;;;;4283336;27;20038;-56
2023/10/25 05:37:08;;;;;;;6.17;1.60;;;13.60;99.90;;;;;;4283691;27;20129;-56
2023/10/25 05:39:11;;;;;;;5.85;1.55;;;13.70;99.90;;;;;;4264630;27;20381;-57
2023/10/25 05:41:18;;;;;;;5.85;1.77;;;13.60;99.90;;;;;;4283308;27;20129;-57
2023/10/25 05:43:23;;;;;;;5.82;1.67;;;13.70;99.90;;;;;;4283070;27;20483;-56
2023/10/25 05:45:27;;;;;;;5.80;1.88;;;13.70;99.90;;;;;;4282978;27;20404;-56
2023/10/25 05:47:30;;;;;;;8.55;1.83;;;13.70;99.90;;;;;;4283267;27;20053;-57
2023/10/25 05:49:32;;;;;;;6.85;1.88;;;13.80;99.90;;;;;;4283324;27;20460;-60
2023/10/25 05:51:36;;;;;;;8.02;2.20;;;13.80;99.90;;;;;;4283263;27;20039;-56
2023/10/25 05:53:38;;;;;;;6.65;1.80;;;13.80;99.90;;;;;;4264195;27;20529;-57
2023/10/25 05:55:44;;;;;;;9.57;2.40;;;13.90;99.90;;;;;;4282850;27;20050;-56
2023/10/25 05:57:46;;;;;;;6.93;2.10;;;13.90;99.90;;;;;;4264517;27;20083;-57
2023/10/25 05:59:49;;;;;;;7.07;2.25;;;13.90;99.90;;;;;;4282876;27;20126;-57
2023/10/25 06:02:01;;;;;;;7.03;2.10;;;13.90;99.90;;;;;;4282948;27;20080;-57
2023/10/25 06:04:05;;;;;;;10.10;1.88;;;13.90;99.90;;;;;;4283063;27;20054;-57
2023/10/25 06:06:11;;;;;;;8.80;2.42;;;13.90;99.90;;;;;;4282941;27;20057;-56
2023/10/25 06:08:14;;;;;;;5.80;2.00;;;14.00;99.90;;;;;;4263977;27;20068;-57
2023/10/25 06:10:17;;;;;;;5.80;1.75;;;14.00;99.90;;;;;;4246933;27;20047;-57
2023/10/25 06:12:22;;;;;;;5.97;1.73;;;14.00;99.90;;;;;;4283038;27;20368;-57
2023/10/25 06:14:25;;;;;;;8.27;2.45;;;14.00;99.90;;;;;;4282623;27;20464;-56
2023/10/25 06:16:27;;;;;;;8.45;2.17;;;14.00;99.90;;;;;;4282876;27;20062;-56
2023/10/25 06:18:34;;;;;;;5.35;2.33;;;14.00;99.90;;;;;;4282739;27;20046;-57
2023/10/25 06:20:36;;;;;;;6.57;2.45;;;14.00;99.90;;;;;;4283070;27;20125;-57
2023/10/25 06:22:38;;;;;;;5.97;1.80;;;14.10;99.90;;;;;;4282921;27;20046;-57
2023/10/25 06:24:40;;;;;;;6.82;2.08;;;14.10;99.90;;;;;;4283158;27;20056;-57
2023/10/25 06:26:43;;;;;;;8.25;2.20;;;14.10;99.90;;;;;;4283628;27;20510;-58
2023/10/25 06:28:45;;;;;;;8.68;1.88;;;14.10;99.90;;;;;;4283620;27;20471;-56
2023/10/25 06:30:47;;;;;;;9.30;2.28;;;14.20;99.90;;;;;;4282959;27;20099;-57
2023/10/25 06:32:51;;;;;;;6.22;1.70;;;14.10;99.90;;;;;;4282648;27;20098;-56
2023/10/25 06:34:55;;;;;;;7.13;1.90;;;14.20;99.90;;;;;;4283019;27;20125;-57
2023/10/25 06:36:58;;;;;;;12.63;2.10;;;14.20;99.90;;;;;;4283487;27;20456;-59
2023/10/25 06:39:04;;;;;;;7.57;1.83;;;14.20;99.90;;;;;;4284754;27;20384;-57
2023/10/25 06:41:14;;;;;;;10.70;2.47;;;14.20;99.90;;;;;;4285005;27;20099;-64
2023/10/25 06:43:17;;;;;;;8.38;2.15;;;14.20;99.90;;;;;;4285460;27;20069;-57
2023/10/25 06:45:19;;;;;;;4.20;1.70;;;14.30;99.90;;;;;;4283036;27;20053;-56
2023/10/25 06:47:25;;;;;;;11.18;1.80;;;14.30;99.90;;;;;;4283202;27;20498;-57
2023/10/25 06:49:28;;;;;;;5.43;1.70;;;14.30;99.90;;;;;;4283114;27;20046;-56
2023/10/25 06:51:33;;;;;;;4.82;1.15;;;14.30;99.90;;;;;;4282808;27;20380;-56
2023/10/25 06:53:36;;;;;;;7.15;1.60;;;14.30;99.90;;;;;;4282694;27;20503;-56
2023/10/25 06:55:38;;;;;;;4.57;1.52;;;14.30;99.90;;;;;;4282705;27;20043;-55
2023/10/25 06:57:42;;;;;;;8.05;1.40;;;14.30;99.90;;;;;;4282494;27;20066;-56
2023/10/25 06:59:45;;;;;;;5.60;1.50;;;14.30;99.90;;;;;;4282449;27;20102;-55
2023/10/25 07:01:53;;;;;;;8.48;2.00;;;14.30;99.90;;;;;;4282210;27;20490;-56
2023/10/25 07:03:58;;;;;;;5.60;1.60;;;14.30;99.90;;;;;;4282328;27;20061;-56
2023/10/25 07:06:03;;;;;;;5.18;1.42;;;14.30;99.90;;;;;;4281798;27;20398;-55
2023/10/25 07:08:07;;;;;;;8.18;1.63;;;14.40;99.90;;;;;;4282368;27;20592;-55
2023/10/25 07:10:11;;;;;;;8.60;1.70;;;14.40;99.90;;;;;;4282802;27;20391;-55
2023/10/25 07:12:13;;;;;;;4.18;1.23;;;14.30;99.90;;;;;;4282526;27;20727;-56
2023/10/25 07:14:15;;;;;;;3.22;1.55;;;14.30;99.90;;;;;;4282211;27;20066;-55
2023/10/25 07:16:17;;;;;;;3.03;1.27;;;14.40;99.90;;;;;;4282009;27;20042;-56
2023/10/25 07:18:20;;;;;;;4.60;1.27;;;14.40;99.90;;;;;;4282265;27;20038;-56
2023/10/25 07:20:22;;;;;;;2.78;1.15;;;14.40;99.90;;;;;;4281717;27;20125;-56
2023/10/25 07:22:25;;;;;;;3.15;1.50;;;14.30;99.90;;;;;;4282026;27;20046;-56
2023/10/25 07:24:29;;;;;;;2.08;1.17;;;14.40;99.90;;;;;;4282093;27;20042;-57
2023/10/25 07:26:31;;;;;;;5.35;2.08;;;14.30;99.90;;;;;;4282108;27;20039;-56
2023/10/25 07:28:33;;;;;;;3.22;1.38;;;14.30;99.90;;;;;;4282039;27;20051;-56
2023/10/25 07:30:36;;;;;;;4.82;1.60;;;14.30;99.90;;;;;;4282056;27;20122;-56
2023/10/25 07:32:38;;;;;;;3.85;1.80;;;14.30;99.90;;;;;;4281903;27;20045;-56
2023/10/25 07:34:40;;;;;;;5.70;1.23;;;14.30;99.90;;;;;;4281922;27;20046;-56
2023/10/25 07:36:42;;;;;;;1.55;0.80;;;14.30;99.90;;;;;;4281507;27;20057;-57
2023/10/25 07:38:44;;;;;;;4.50;1.00;;;14.30;99.90;;;;;;4281864;27;20043;-56
2023/10/25 07:40:49;;;;;;;1.73;1.02;;;14.30;99.90;;;;;;4263420;27;20066;-56
2023/10/25 07:42:51;;;;;;;2.65;0.88;;;14.30;99.90;;;;;;4281674;27;20046;-56
2023/10/25 07:44:54;;;;;;;2.67;0.60;;;14.30;99.90;;;;;;4281143;27;20046;-56
2023/10/25 07:46:56;;;;;;;1.67;0.80;;;14.30;99.90;;;;;;4281608;27;20052;-63
2023/10/25 07:48:58;;;;;;;1.98;0.70;;;14.30;99.90;;;;;;4281974;27;20045;-56
2023/10/25 07:51:04;;;;;;;1.95;0.93;;;14.30;99.90;;;;;;4263251;27;20125;-57
2023/10/25 07:53:06;;;;;;;2.72;1.42;;;14.30;99.90;;;;;;4283578;27;20061;-57
2023/10/25 07:55:09;;;;;;;3.85;0.93;;;14.30;99.90;;;;;;4287267;27;20403;-57
2023/10/25 07:57:33;;;;;;;1.77;0.70;;;14.30;99.90;;;;;;4268848;27;20055;-56
2023/10/25 07:59:38;;;;;;;2.95;0.80;;;14.30;99.90;;;;;;4261925;27;20419;-56
2023/10/25 08:01:40;;;;;;;1.10;0.77;;;14.40;99.90;;;;;;4250358;27;20412;-57
2023/10/25 08:03:43;;;;;;;1.92;0.90;;;14.40;99.90;;;;;;4250307;27;20074;-56
2023/10/25 08:05:45;;;;;;;3.70;1.00;;;14.40;99.90;;;;;;4250345;27;20084;-57
2023/10/25 08:07:47;;;;;;;1.30;0.60;;;14.40;99.90;;;;;;4250692;27;20449;-57
2023/10/25 08:09:50;;;;;;;3.05;0.77;;;14.30;99.90;;;;;;4250613;27;20045;-57
2023/10/25 08:11:54;;;;;;;2.50;0.90;;;14.30;99.90;;;;;;4250543;27;20508;-56
2023/10/25 08:13:58;;;;;;;1.83;0.80;;;14.40;99.90;;;;;;4250673;27;20438;-56
2023/10/25 08:16:01;;;;;;;2.28;0.80;;;14.30;99.90;;;;;;4250817;27;20134;-56
2023/10/25 08:18:04;;;;;;;1.33;0.80;;;14.30;99.90;;;;;;4271024;27;20479;-57
2023/10/25 08:20:07;;;;;;;2.55;1.05;;;14.30;99.90;;;;;;4285299;27;20042;-57
2023/10/25 08:22:09;;;;;;;1.48;0.68;;;14.40;99.90;;;;;;4285333;27;20487;-56
2023/10/25 08:24:11;;;;;;;2.95;0.90;;;14.40;99.90;;;;;;4284621;27;20042;-56
2023/10/25 08:26:13;;;;;;;3.83;1.33;;;14.40;99.90;;;;;;4266290;27;20047;-59
2023/10/25 08:28:16;;;;;;;3.22;1.00;;;14.40;99.90;;;;;;4284729;27;20052;-56
2023/10/25 08:30:21;;;;;;;0.93;0.80;;;14.40;99.90;;;;;;4284427;27;20039;-56
2023/10/25 08:32:22;;;;;;;;;;;14.40;99.90;;;;;;4285394;27;20500;-56
2023/10/25 08:34:25;;;;;;;2.55;0.90;;;14.40;99.90;;;;;;4284167;27;19942;-56
2023/10/25 08:36:31;;;;;;;1.63;0.85;;;14.40;99.90;;;;;;4284305;27;20050;-59
2023/10/25 08:38:34;;;;;;;1.85;0.70;;;14.40;99.90;;;;;;4284316;27;20355;-56
2023/10/25 08:40:40;;;;;;;2.30;0.90;;;14.40;99.90;;;;;;4284267;27;20054;-56
2023/10/25 08:42:42;;;;;;;4.35;1.40;;;14.40;99.90;;;;;;4283958;27;20451;-56
2023/10/25 08:44:44;;;;;;;3.55;0.98;;;14.50;99.90;;;;;;4284213;27;20046;-56
2023/10/25 08:46:51;;;;;;;3.95;1.13;;;14.50;99.90;;;;;;4284401;27;20049;-56
2023/10/25 08:48:55;;;;;;;4.07;1.00;;;14.50;99.90;;;;;;4283561;27;20042;-57
2023/10/25 08:50:59;;;;;;;2.75;1.25;;;14.50;99.90;;;;;;4284322;27;20042;-57
2023/10/25 08:53:01;;;;;;;5.25;0.85;;;14.50;99.90;;;;;;4284342;27;20479;-56
2023/10/25 08:55:07;;;;;;;3.33;1.13;;;14.60;99.90;;;;;;4284307;27;20052;-57
2023/10/25 08:57:09;;;;;;;4.03;0.82;;;14.60;99.90;;;;;;4284136;27;20065;-57
2023/10/25 08:59:11;;;;;;;2.15;1.00;;;14.60;99.90;;;;;;4284294;27;20038;-56
2023/10/25 09:01:13;;;;;;;5.28;1.60;;;14.60;99.90;;;;;;4284298;27;20414;-56
2023/10/25 09:03:39;;;;;;;2.72;1.27;;;14.60;99.90;;;;;;4265153;27;20047;-56
2023/10/25 09:05:42;;;;;;;1.77;0.90;;;14.60;99.90;;;;;;4283215;27;20049;-56
2023/10/25 09:07:47;;;;;;;4.53;1.10;;;14.60;99.90;;;;;;4283660;27;20046;-56
2023/10/25 09:09:49;;;;;;;3.65;1.10;;;14.70;99.90;;;;;;4283498;27;20046;-57
2023/10/25 09:11:52;;;;;;;2.80;0.95;;;14.70;99.90;;;;;;4265253;27;20079;-56
2023/10/25 09:13:56;;;;;;;2.20;0.90;;;14.70;99.90;;;;;;4284618;27;20411;-57
2023/10/25 09:16:07;;;;;;;7.53;1.00;;;14.80;99.90;;;;;;4286209;27;20452;-57
2023/10/25 09:18:09;;;;;;;2.90;0.80;;;14.80;99.90;;;;;;4285904;27;20054;-57
2023/10/25 09:20:13;;;;;;;1.15;0.75;;;14.80;99.90;;;;;;4285155;27;20114;-56
2023/10/25 09:22:25;;;;;;;6.22;1.70;;;14.90;99.90;;;;;;4284516;27;20050;-56
2023/10/25 09:24:45;;;;;;;4.32;1.17;;;14.80;99.90;;;;;;4283725;27;20440;-55
2023/10/25 09:26:48;;;;;;;2.63;0.77;;;14.80;99.90;;;;;;4283603;27;20095;-56
2023/10/25 09:28:53;;;;;;;2.17;1.25;;;14.80;99.90;;;;;;4265233;27;20078;-56
2023/10/25 09:30:55;;;;;;;1.90;1.20;;;14.90;99.90;;;;;;4282999;27;20054;-57
2023/10/25 09:32:57;;;;;;;2.92;1.13;;;14.90;99.90;;;;;;4283610;27;20075;-56
2023/10/25 09:35:00;;;;;;;2.92;0.95;;;14.90;99.90;;;;;;4283640;27;20051;-56
2023/10/25 09:37:04;;;;;;;2.85;1.17;;;14.90;99.90;;;;;;4283721;27;20514;-56
2023/10/25 09:39:06;;;;;;;1.57;0.80;;;14.90;99.90;;;;;;4283769;27;20048;-55
2023/10/25 09:41:14;;;;;;;5.53;0.90;;;15.00;99.90;;;;;;4283338;27;20470;-56
2023/10/25 09:43:20;;;;;;;1.20;1.02;;;15.00;99.90;;;;;;4283416;27;20073;-56
2023/10/25 09:45:27;;;;;;;1.40;0.80;;;14.90;99.90;;;;;;4283093;27;20344;-56
2023/10/25 09:47:38;;;;;;;3.58;0.65;;;14.90;99.90;;;;;;4283408;27;20093;-56
2023/10/25 09:49:42;;;;;;;3.03;0.60;;;14.90;99.90;;;;;;4283513;27;20516;-56
2023/10/25 09:51:58;;;;;;;1.38;0.60;;;14.80;99.90;;;;;;4283414;27;20057;-57
2023/10/25 09:54:10;;;;;;;2.60;0.75;;;14.80;99.90;;;;;;4283297;27;20050;-55
2023/10/25 09:56:13;;;;;;;0.88;0.60;;;14.90;99.90;;;;;;4283663;27;20069;-58
2023/10/25 09:58:17;;;;;;;1.50;0.80;;;14.90;99.90;;;;;;4284420;27;20123;-60
2023/10/25 10:00:20;;;;;;;1.85;0.90;;;15.00;99.90;;;;;;4283750;27;20435;-56
2023/10/25 10:02:33;;;;;;;0.85;0.70;;;15.00;99.90;;;;;;4283291;27;20046;-56
2023/10/25 10:04:49;;;;;;;2.20;0.93;;;15.00;99.90;;;;;;4283106;27;20076;-56
2023/10/25 10:07:01;;;;;;;2.00;0.60;;;14.90;99.90;;;;;;4283090;27;20069;-56
2023/10/25 10:09:14;;;;;;;1.17;0.85;;;14.90;99.90;;;;;;4264533;27;20404;-58
2023/10/25 10:11:21;;;;;;;1.17;0.60;;;14.90;99.90;;;;;;4249982;27;20168;-61
2023/10/25 10:13:24;;;;;;;0.95;0.70;;;14.90;99.90;;;;;;4260642;27;20042;-56
2023/10/25 10:16:04;;;;;;;1.95;1.08;;;15.00;99.90;;;;;;4259174;27;20042;-58
2023/10/25 10:18:10;;;;;;;1.52;1.00;;;15.00;99.90;;;;;;4260462;27;20342;-57
2023/10/25 10:20:23;;;;;;;3.15;1.23;;;15.00;99.90;;;;;;4258416;27;20039;-58
2023/10/25 10:22:26;;;;;;;2.00;1.15;;;15.00;99.90;;;;;;4258507;27;20190;-61
2023/10/25 10:24:44;;;;;;;5.78;1.13;;;15.20;99.90;;;;;;4257867;27;20062;-56
2023/10/25 10:26:47;;;;;;;1.63;0.90;;;15.20;99.90;;;;;;4257587;27;20045;-56
2023/10/25 10:28:50;;;;;;;4.18;0.88;;;15.40;99.90;;;;;;4256756;27;20053;-60
2023/10/25 10:30:54;;;;;;;2.90;0.77;;;15.40;99.90;;;;;;4256728;27;20066;-56
2023/10/25 10:32:57;;;;;;;1.73;0.88;;;15.40;99.90;;;;;;4222807;28;20036;-55
2023/10/25 10:35:02;;;;;;;2.42;1.05;;;15.40;99.90;;;;;;4257545;27;20035;-57
2023/10/25 10:37:08;;;;;;;5.13;1.00;;;15.40;99.90;;;;;;4240429;27;20039;-56
2023/10/25 10:39:12;;;;;;;1.77;1.25;;;15.30;99.90;;;;;;4257199;27;20049;-56
2023/10/25 10:41:27;;;;;;;2.08;1.10;;;15.30;99.90;;;;;;4257228;27;20050;-55
2023/10/25 10:43:29;;;;;;;;;;;15.40;99.90;;;;;;4257628;27;20035;-60
2023/10/25 10:45:32;;;;;;;2.45;1.55;;;15.30;99.90;;;;;;4258254;27;19933;-56